East Gillespie, Illinois
Current Conditions -  °F | °C
As of 10:55 AM on Sunday 21 Dec 2014 (Local Time) from K3LF Reporting Station
Overcast Overcast  
Wind Chill: 29°   Ceiling: 2100
Heat Index: 36°   Visibility: 10mi
Dew Point: 30°   Wind: 9mph
Humidity: 79%   Direction: 150°SSE
Pressure: 30.19"   Gusts: NA
Location:  39.1304°N, 89.8405°W
Report Text: K3LF 211655Z AUTO 15008KT 10SM OVC021 02/M01 A3019 RMK AO2 T00201013
Loading
Personal Weather Stations






























Interactive Weather Map New forecast layout! Learn more

10-Day Weather Forecast

Advertisements
Track Severe Weather on mobile